Bradyville, Tennessee
Current Conditions -  °F | °C
As of 12:55 PM on Tuesday 27 Jan 2015 (Local Time) from KRNC Reporting Station
Overcast Overcast  
Wind Chill: 29°   Ceiling: 1600
Heat Index: 36°   Visibility: 10mi
Dew Point: 34°   Wind: 9mph
Humidity: 93%   Direction: 340°NNW
Pressure: 30.04"   Gusts: NA
Location:  35.74°N, 86.17°W
Report Text: KRNC 271855Z AUTO 34008KT 10SM OVC016 02/01 A3004 RMK
Loading
Personal Weather Stations






























Interactive Weather Map New forecast layout! Learn more

10-Day Weather Forecast

Advertisements
Track Severe Weather on mobile